map of HGO home
Great Circle Mapper logo
HGO - Airport
Location
City:  Korhogo, Savanes, Côte d'Ivoire (Ivory Coast)
ICAO:DIKO
IATA:HGO

Details
Type:Airport (Aerodrome, Airfield)
Latitude:9°23'14"N (9.387183)
Longitude:5°33'24"W (-5.556663)
Datum:WGS 1984
Elevation:1214 ft (370 m)
Variation:4.25°W (WMM2015 magnetic declination)
0.10° annual change
Runways:1
Longest:6890 × 98 ft (2100 × 30 m), paved

Time
Time Zone:UTC+0
Local Time:

Weather
METAR:DIKO 291100Z 36004KT CAVOK 28/22 Q1014 NOSIG

Related Locations
Nearby:
Farthest:RTA: 12160 mi / 19569 km
Elsee, Rotuma Island, FJ

Find:

   beyond  
but within

Other Information
Maps:
NOTAMs:
Links:
Sources:

  
flag of Côte d'Ivoire (Ivory Coast)   

Sectional Chart

Flight Planning
at skyvector.com

Satellite Image

Google Maps Satellite view

 

Copyright © 2004-2016 Karl L. Swartz. All rights reserved.
The Great Circle Mapper name and logo are trademarks of the Great Circle Mapper.
All other trademarks mentioned herein belong to their respective owners.
Please see credits for attibutions and further copyright information.

  Follow gcmap on Facebook Follow gcmap on Twitter Follow gcmap on Google+ GCmap on LinkedIn

hCard Microformat

Geo Microformat